Time;durP1;ratioP1;P1;durP2;ratioP2;P2;SDS_P1;SDS_P2;PMS_P1;PMS_P2;Temp;Humidity;BMP_temperature;BMP_pressure;BME280_temperature;BME280_humidity;BME280_pressure;Samples;Min_cycle;Max_cycle;Signal;HPM_P1;HPM_P2
2022/11/12 00:00:15;;;;;;;22.23;6.78;;;;;;;-142.75;100.00;79027.69;5033008;28;20024;-65
2022/11/12 00:02:40;;;;;;;16.15;6.55;;;;;;;-142.75;100.00;79013.91;5036992;28;20028;-65
2022/11/12 00:05:06;;;;;;;14.90;7.20;;;;;;;-142.75;100.00;79025.72;5017081;28;20291;-64
2022/11/12 00:07:32;;;;;;;12.02;6.72;;;;;;;-142.75;100.00;79074.97;5039207;28;20340;-64
2022/11/12 00:09:57;;;;;;;15.52;7.18;;;;;;;-142.75;100.00;79094.69;5027934;28;20426;-64
2022/11/12 00:12:23;;;;;;;10.48;5.43;;;;;;;-142.75;100.00;79074.97;5039825;28;20348;-64
2022/11/12 00:14:48;;;;;;;33.90;4.97;;;;;;;-142.75;100.00;79090.72;5036463;28;20552;-64
2022/11/12 00:17:14;;;;;;;10.23;4.50;;;;;;;-142.75;100.00;79078.91;5034979;28;20345;-64
2022/11/12 00:19:39;;;;;;;13.35;5.25;;;;;;;-142.75;100.00;79071.03;5039763;28;20332;-64
2022/11/12 00:22:05;;;;;;;18.20;4.97;;;;;;;-142.75;100.00;79074.97;5027796;28;20368;-64
2022/11/12 00:24:30;;;;;;;6.38;3.72;;;;;;;-142.75;100.00;79071.03;5034347;28;20505;-64
2022/11/12 00:26:56;;;;;;;30.40;4.88;;;;;;;-142.75;100.00;79094.69;5028820;28;20302;-64
2022/11/12 00:29:21;;;;;;;52.25;5.28;;;;;;;-142.75;100.00;79138.00;5027606;28;20434;-64
2022/11/12 00:31:46;;;;;;;10.95;4.68;;;;;;;-142.75;100.00;79118.31;5028719;28;20396;-64
2022/11/12 00:34:12;;;;;;;6.60;4.05;;;;;;;-142.75;100.00;79110.44;5030449;28;20407;-64
2022/11/12 00:36:37;;;;;;;9.63;5.18;;;;;;;-142.75;100.00;79098.63;5035332;28;20316;-64
2022/11/12 00:39:03;;;;;;;14.18;4.05;;;;;;;-142.75;100.00;79134.06;5030582;28;20317;-64
2022/11/12 00:41:29;;;;;;;9.10;4.10;;;;;;;-142.75;100.00;79165.59;5030069;28;20191;-64
2022/11/12 00:43:54;;;;;;;3.95;2.58;;;;;;;-142.75;100.00;79185.28;5043972;28;20049;-68
2022/11/12 00:46:20;;;;;;;4.68;1.98;;;;;;;-142.75;100.00;79206.94;5036004;28;20295;-68
2022/11/12 00:48:45;;;;;;;10.18;3.38;;;;;;;-142.75;100.00;79246.34;5028511;28;20453;-68
2022/11/12 00:51:11;;;;;;;7.00;3.15;;;;;;;-142.75;100.00;79260.13;5011241;28;20399;-68
2022/11/12 00:53:36;;;;;;;4.90;2.67;;;;;;;-142.75;100.00;79238.47;5032713;28;20534;-69
2022/11/12 00:56:06;;;;;;;3.88;2.25;;;;;;;-142.75;100.00;79212.84;5017524;28;20329;-69
2022/11/12 00:58:33;;;;;;;4.13;2.33;;;;;;;-142.75;100.00;79191.19;5026927;28;20016;-68
2022/11/12 01:01:14;;;;;;;6.43;3.20;;;;;;;-142.75;100.00;79163.63;5031670;28;20068;-68
2022/11/12 01:03:40;;;;;;;7.73;4.03;;;;;;;-142.75;100.00;79155.72;5034760;28;20533;-68
2022/11/12 01:06:09;;;;;;;5.80;2.97;;;;;;;-142.75;100.00;79163.63;5023053;28;20039;-69
2022/11/12 01:08:35;;;;;;;7.13;4.03;;;;;;;-142.75;100.00;79141.94;5035962;28;20080;-69
2022/11/12 01:11:19;;;;;;;10.43;4.43;;;;;;;-142.75;100.00;79110.44;5029631;28;20417;-68
2022/11/12 01:13:46;;;;;;;12.83;6.13;;;;;;;-142.75;100.00;79116.34;5029793;28;20028;-68
2022/11/12 01:16:15;;;;;;;12.70;6.00;;;;;;;-142.75;100.00;79118.31;5033288;28;20155;-69
2022/11/12 01:18:41;;;;;;;9.87;5.13;;;;;;;-142.75;100.00;79106.50;5028620;28;20042;-68
2022/11/12 01:21:07;;;;;;;22.05;5.95;;;;;;;-142.75;100.00;79104.53;5034456;28;20050;-69
2022/11/12 01:23:37;;;;;;;28.50;5.40;;;;;;;-142.75;100.00;79122.25;5017938;28;20492;-67
2022/11/12 01:26:07;;;;;;;23.67;5.70;;;;;;;-142.75;100.00;79134.06;5037173;28;20016;-69
2022/11/12 01:28:34;;;;;;;8.83;4.63;;;;;;;-142.75;100.00;79161.66;5028055;28;20024;-67
2022/11/12 01:31:17;;;;;;;15.73;5.30;;;;;;;-142.75;100.00;79157.72;5039984;28;20019;-69
2022/11/12 01:33:45;;;;;;;12.63;5.63;;;;;;;-142.75;100.00;79157.72;5011478;28;20031;-67
2022/11/12 01:36:12;;;;;;;18.83;6.63;;;;;;;-142.75;100.00;79151.78;5037835;28;20020;-68
2022/11/12 01:38:40;;;;;;;10.48;5.82;;;;;;;-142.75;100.00;79153.75;5038851;28;20028;-68
2022/11/12 01:41:07;;;;;;;14.50;6.30;;;;;;;-142.75;100.00;79138.00;5033825;28;20046;-68
2022/11/12 01:43:33;;;;;;;13.20;6.37;;;;;;;-142.75;100.00;79138.00;5036124;28;20020;-68
2022/11/12 01:46:02;;;;;;;14.18;6.93;;;;;;;-142.75;100.00;79126.19;5032166;28;20331;-68
2022/11/12 01:48:33;;;;;;;11.90;6.57;;;;;;;-142.75;100.00;79108.47;5035460;28;20635;-68
2022/11/12 01:51:00;;;;;;;11.90;6.33;;;;;;;-142.75;100.00;79098.63;5036617;28;20031;-68
2022/11/12 01:53:30;;;;;;;22.17;8.80;;;;;;;-142.75;100.00;79086.78;5026238;28;20082;-69
2022/11/12 01:55:57;;;;;;;16.23;7.53;;;;;;;-142.75;100.00;79074.97;5031284;28;20031;-69
2022/11/12 01:58:28;;;;;;;16.83;8.77;;;;;;;-142.75;100.00;79078.91;5032654;28;20196;-68
2022/11/12 02:00:54;;;;;;;19.17;7.78;;;;;;;-142.75;100.00;79080.88;5026927;28;20074;-68
2022/11/12 02:03:23;;;;;;;15.13;7.22;;;;;;;-142.75;100.00;79078.91;5032686;28;20260;-68
2022/11/12 02:05:56;;;;;;;14.90;7.53;;;;;;;-142.75;100.00;79078.91;5020584;28;20687;-68
2022/11/12 02:08:23;;;;;;;15.07;7.80;;;;;;;-142.75;100.00;79088.75;5021697;28;20537;-67
2022/11/12 02:10:49;;;;;;;13.83;6.67;;;;;;;-142.75;100.00;79094.69;5008815;28;20104;-68
2022/11/12 02:15:59;;;;;;;13.07;6.43;;;;;;;-142.75;100.00;79084.81;5028991;28;19948;-68
2022/11/12 02:18:25;;;;;;;13.32;6.63;;;;;;;-142.75;100.00;79069.06;5031598;28;20093;-67
2022/11/12 02:20:56;;;;;;;12.05;6.32;;;;;;;-142.75;100.00;79067.09;5031171;28;20423;-69
2022/11/12 02:23:22;;;;;;;10.07;5.43;;;;;;;-142.75;100.00;79071.03;5008653;28;20138;-68
2022/11/12 02:25:47;;;;;;;11.63;6.28;;;;;;;-142.75;100.00;79074.97;5031122;28;20348;-68
2022/11/12 02:28:14;;;;;;;10.75;6.05;;;;;;;-142.75;100.00;79098.63;5009646;28;20374;-68
2022/11/12 02:30:43;;;;;;;10.33;6.33;;;;;;;-142.75;100.00;79078.91;5031143;28;20118;-68
2022/11/12 02:33:08;;;;;;;9.93;5.73;;;;;;;-142.75;100.00;79082.84;5030352;28;20020;-68
2022/11/12 02:35:34;;;;;;;9.75;6.07;;;;;;;-142.75;100.00;79078.91;5026804;28;20332;-68
2022/11/12 02:38:00;;;;;;;10.40;5.65;;;;;;;-142.75;100.00;79073.00;5006772;28;20360;-68
2022/11/12 02:40:25;;;;;;;9.18;5.78;;;;;;;-142.75;100.00;79065.13;5010597;28;20464;-68
2022/11/12 02:42:51;;;;;;;11.40;6.10;;;;;;;-142.75;100.00;79071.03;5031027;28;20371;-68
2022/11/12 02:45:17;;;;;;;7.72;5.93;;;;;;;-142.75;100.00;79053.31;5038771;28;20313;-67
2022/11/12 02:47:43;;;;;;;9.20;6.43;;;;;;;-142.75;100.00;79065.13;5030369;28;20555;-66
2022/11/12 02:50:09;;;;;;;11.13;5.93;;;;;;;-142.75;100.00;79059.22;5030401;28;20119;-67
2022/11/12 02:52:35;;;;;;;;;;;;;;;-142.75;100.00;79067.09;5028840;28;20076;-67
2022/11/12 02:55:00;;;;;;;12.97;6.20;;;;;;;-142.75;100.00;79065.13;5037176;28;20140;-67
2022/11/12 02:57:26;;;;;;;9.50;6.10;;;;;;;-142.75;100.00;79076.94;5032810;28;20381;-67
2022/11/12 02:59:51;;;;;;;11.80;6.93;;;;;;;-142.75;100.00;79088.75;5029422;28;20326;-67
2022/11/12 03:02:17;;;;;;;11.40;6.57;;;;;;;-142.75;100.00;79098.63;5039655;28;20166;-67
2022/11/12 03:04:42;;;;;;;10.88;6.13;;;;;;;-142.75;100.00;79086.78;5035344;28;20453;-66
2022/11/12 03:07:08;;;;;;;11.77;7.28;;;;;;;-142.75;100.00;79106.50;5038142;28;20182;-67
2022/11/12 03:09:33;;;;;;;15.68;7.47;;;;;;;-142.75;100.00;79116.34;5041619;28;20348;-67
2022/11/12 03:11:59;;;;;;;19.38;8.13;;;;;;;-142.75;100.00;79110.44;5030586;28;20356;-67
2022/11/12 03:14:25;;;;;;;15.43;7.88;;;;;;;-142.75;100.00;79106.50;5033007;28;20435;-66
2022/11/12 03:16:50;;;;;;;12.60;6.95;;;;;;;-142.75;100.00;79104.53;5020604;28;20410;-66
2022/11/12 03:19:16;;;;;;;24.05;7.35;;;;;;;-142.75;100.00;79106.50;5036179;28;20302;-66
2022/11/12 03:21:41;;;;;;;16.70;6.45;;;;;;;-142.75;100.00;79110.44;5013414;28;20377;-67
2022/11/12 03:24:07;;;;;;;31.40;7.50;;;;;;;-142.75;100.00;79114.38;5028802;28;20458;-66
2022/11/12 03:26:32;;;;;;;12.85;7.25;;;;;;;-142.75;100.00;79132.09;5019965;28;20324;-66
2022/11/12 03:28:58;;;;;;;16.35;6.68;;;;;;;-142.75;100.00;79149.81;5026942;28;20383;-67
2022/11/12 03:31:24;;;;;;;10.20;6.82;;;;;;;-142.75;100.00;79141.94;5034690;28;20371;-67
2022/11/12 03:33:49;;;;;;;;;;;;;;;-142.75;100.00;79138.00;5016404;28;20050;-66
2022/11/12 03:36:15;;;;;;;13.23;6.83;;;;;;;-142.75;100.00;79143.91;5034441;28;20252;-66
2022/11/12 03:38:40;;;;;;;30.98;8.35;;;;;;;-142.75;100.00;79151.78;5041645;28;20364;-67
2022/11/12 03:41:06;;;;;;;20.35;7.75;;;;;;;-142.75;100.00;79157.72;5037270;28;20457;-66
2022/11/12 03:43:31;;;;;;;22.75;7.43;;;;;;;-142.75;100.00;79171.50;5016343;28;20321;-66
2022/11/12 03:45:57;;;;;;;14.45;6.55;;;;;;;-142.75;100.00;79173.47;5041431;28;20309;-66
2022/11/12 03:48:22;;;;;;;8.15;5.65;;;;;;;-142.75;100.00;79171.50;5044025;28;20406;-67
2022/11/12 03:50:48;;;;;;;12.43;6.03;;;;;;;-142.75;100.00;79185.28;5034401;28;20423;-67
2022/11/12 03:53:13;;;;;;;19.02;6.07;;;;;;;-142.75;100.00;79193.16;5033878;28;20383;-67
2022/11/12 03:55:39;;;;;;;40.30;6.22;;;;;;;-142.75;100.00;79216.78;5014219;28;20475;-66
2022/11/12 03:58:05;;;;;;;11.95;6.07;;;;;;;-142.75;100.00;79212.84;5038312;28;20134;-66
2022/11/12 04:00:30;;;;;;;10.65;5.03;;;;;;;-142.75;100.00;79228.63;5034892;28;20338;-67
2022/11/12 04:02:57;;;;;;;13.95;6.30;;;;;;;-142.75;100.00;79244.38;5034448;28;20337;-67
2022/11/12 04:08:35;;;;;;;12.17;7.10;;;;;;;-142.75;100.00;79224.69;5025086;28;20082;-66
2022/11/12 04:11:06;;;;;;;19.93;6.63;;;;;;;-142.75;100.00;79212.84;5027365;28;20057;-66
2022/11/12 04:13:32;;;;;;;14.00;7.77;;;;;;;-142.75;100.00;79204.97;5013134;28;20031;-67
2022/11/12 04:21:55;;;;;;;21.00;6.60;;;;;;;-142.75;100.00;79201.03;5029787;28;20113;-67
2022/11/12 04:27:08;;;;;;;22.00;6.93;;;;;;;-142.75;100.00;79228.63;5025162;28;20122;-67
2022/11/12 04:32:18;;;;;;;20.50;7.87;;;;;;;-142.75;100.00;79189.22;5038086;28;20076;-67
2022/11/12 04:34:44;;;;;;;11.98;7.50;;;;;;;-142.75;100.00;79181.34;5036090;28;20032;-67
2022/11/12 04:37:09;;;;;;;19.05;7.10;;;;;;;-142.75;100.00;79199.06;5015976;28;20325;-67
2022/11/12 04:39:35;;;;;;;8.70;5.63;;;;;;;-142.75;100.00;79201.03;5032938;28;20352;-66
2022/11/12 04:47:45;;;;;;;13.67;5.40;;;;;;;-142.75;100.00;79246.34;4966865;28;21057;-67
2022/11/12 04:50:16;;;;;;;7.68;5.00;;;;;;;-142.75;100.00;79256.19;5015283;28;20068;-66
2022/11/12 04:52:42;;;;;;;17.83;5.30;;;;;;;-142.75;100.00;79275.88;5030416;28;20028;-67
2022/11/12 04:55:08;;;;;;;18.88;5.85;;;;;;;-142.75;100.00;79273.91;5032777;28;20341;-67
2022/11/12 04:57:37;;;;;;;10.63;4.97;;;;;;;-142.75;100.00;79269.97;5040080;28;20031;-66
2022/11/12 05:00:04;;;;;;;13.03;5.87;;;;;;;-142.75;100.00;79285.75;5013350;28;20023;-67
2022/11/12 05:02:30;;;;;;;14.73;5.90;;;;;;;-142.75;100.00;79291.66;5032917;28;20046;-66
2022/11/12 05:04:55;;;;;;;10.57;5.20;;;;;;;-142.75;100.00;79281.81;5016544;28;20322;-67
2022/11/12 05:07:21;;;;;;;9.98;5.03;;;;;;;-142.75;100.00;79293.63;5036780;28;20356;-67
2022/11/12 05:09:47;;;;;;;12.48;5.25;;;;;;;-142.75;100.00;79299.53;5029381;28;20032;-66
2022/11/12 05:12:12;;;;;;;9.95;5.10;;;;;;;-142.75;100.00;79299.53;5035148;28;20466;-66
2022/11/12 05:14:38;;;;;;;14.63;5.90;;;;;;;-142.75;100.00;79289.69;5010467;28;20349;-66
2022/11/12 05:17:04;;;;;;;10.23;6.40;;;;;;;-142.75;100.00;79271.94;5036655;28;20415;-66
2022/11/12 05:19:30;;;;;;;18.10;5.80;;;;;;;-142.75;100.00;79283.78;5028361;28;20130;-66
2022/11/12 05:22:04;;;;;;;9.40;5.35;;;;;;;-142.75;100.00;79275.88;5018587;28;20320;-66
2022/11/12 05:24:35;;;;;;;15.00;6.40;;;;;;;-142.75;100.00;79248.31;5028242;28;20097;-67
2022/11/12 05:27:01;;;;;;;25.63;7.20;;;;;;;-142.75;100.00;79220.75;5038374;28;20024;-66
2022/11/12 05:29:27;;;;;;;;;;;;;;;-142.75;100.00;79208.91;5033167;28;20016;-66
2022/11/12 05:31:53;;;;;;;12.07;6.50;;;;;;;-142.75;100.00;79197.09;5025981;28;20081;-66
2022/11/12 05:34:18;;;;;;;10.98;5.35;;;;;;;-142.75;100.00;79238.47;5034920;28;20306;-66
2022/11/12 05:36:44;;;;;;;8.65;4.85;;;;;;;-142.75;100.00;79273.91;5030222;28;20019;-65
2022/11/12 05:39:09;;;;;;;9.48;5.50;;;;;;;-142.75;100.00;79268.00;5013611;28;20031;-67
2022/11/12 05:41:35;;;;;;;15.70;5.20;;;;;;;-142.75;100.00;79299.53;5036649;28;20331;-66
2022/11/12 05:44:00;;;;;;;13.23;5.32;;;;;;;-142.75;100.00;79327.09;5037383;28;20328;-65
2022/11/12 05:46:26;;;;;;;10.82;4.82;;;;;;;-142.75;100.00;79335.00;5013816;28;20340;-66
2022/11/12 05:48:51;;;;;;;24.88;4.68;;;;;;;-142.75;100.00;79335.00;5030607;28;20361;-66
2022/11/12 05:51:17;;;;;;;7.95;4.95;;;;;;;-142.75;100.00;79331.03;5037876;28;20352;-66
2022/11/12 05:53:42;;;;;;;14.27;4.65;;;;;;;-142.75;100.00;79350.75;5009920;28;20277;-66
2022/11/12 05:56:09;;;;;;;6.72;4.55;;;;;;;-142.75;100.00;79352.72;5030156;28;20378;-67
2022/11/12 05:58:36;;;;;;;6.17;4.63;;;;;;;-142.75;100.00;79348.78;5030712;28;20031;-66
2022/11/12 06:01:02;;;;;;;7.77;4.43;;;;;;;-142.75;100.00;79374.38;5033549;28;20023;-66
2022/11/12 06:03:28;;;;;;;12.53;4.50;;;;;;;-142.75;100.00;79388.16;5036362;28;20031;-66
2022/11/12 06:05:54;;;;;;;;;;;;;;;-142.75;100.00;79382.25;5028495;28;20058;-66
2022/11/12 06:08:19;;;;;;;20.87;4.50;;;;;;;-142.75;100.00;79394.09;5023431;28;20248;-66
2022/11/12 06:10:49;;;;;;;16.38;4.82;;;;;;;-142.75;100.00;79390.13;5034781;28;20317;-68
2022/11/12 06:13:15;;;;;;;7.03;4.37;;;;;;;-142.75;100.00;79405.91;5024648;28;20099;-68
2022/11/12 06:15:41;;;;;;;13.48;4.72;;;;;;;-142.75;100.00;79407.88;5029690;28;20402;-68
2022/11/12 06:18:06;;;;;;;7.72;4.22;;;;;;;-142.75;100.00;79405.91;5031714;28;20923;-68
2022/11/12 06:20:33;;;;;;;7.45;4.53;;;;;;;-142.75;100.00;79419.69;5019214;28;20344;-68
2022/11/12 06:22:58;;;;;;;6.27;4.13;;;;;;;-142.75;100.00;79417.72;5011894;28;20040;-68
2022/11/12 06:25:24;;;;;;;6.22;4.55;;;;;;;-142.75;100.00;79423.63;5029062;28;20104;-69
2022/11/12 06:27:49;;;;;;;8.10;5.10;;;;;;;-142.75;100.00;79439.38;5029272;28;20559;-68
2022/11/12 06:30:15;;;;;;;9.68;4.70;;;;;;;-142.75;100.00;79423.63;5030584;28;20318;-67
2022/11/12 06:32:41;;;;;;;8.23;4.40;;;;;;;-142.75;100.00;79425.59;5029989;28;20169;-68
2022/11/12 06:35:07;;;;;;;18.63;5.15;;;;;;;-142.75;100.00;79429.53;5008697;28;20329;-68
2022/11/12 06:37:32;;;;;;;10.52;4.60;;;;;;;-142.75;100.00;79433.47;5035365;28;20189;-68
2022/11/12 06:39:57;;;;;;;6.72;4.32;;;;;;;-142.75;100.00;79443.31;5037347;28;20212;-69
2022/11/12 06:42:23;;;;;;;7.25;4.22;;;;;;;-142.75;100.00;79439.38;5014708;28;20422;-71
2022/11/12 06:44:48;;;;;;;6.10;4.22;;;;;;;-142.75;100.00;79425.59;5068537;22;20541;-67
2022/11/12 06:47:14;;;;;;;7.43;5.65;;;;;;;-142.75;100.00;79401.97;5057254;27;20343;-66
2022/11/12 06:49:39;;;;;;;18.13;6.28;;;;;;;-142.75;100.00;79382.25;5057166;27;20126;-67
2022/11/12 06:52:05;;;;;;;10.65;6.18;;;;;;;-142.75;100.00;79362.56;5039760;27;20347;-66
2022/11/12 06:54:30;;;;;;;7.68;5.53;;;;;;;-142.75;100.00;79354.69;5057642;27;20335;-67
2022/11/12 06:56:56;;;;;;;15.02;6.15;;;;;;;-142.75;100.00;79358.63;5054639;27;20368;-67
2022/11/12 06:59:21;;;;;;;15.95;6.22;;;;;;;-142.75;100.00;79376.34;5060030;27;20100;-69
2022/11/12 07:01:47;;;;;;;8.90;6.13;;;;;;;-142.75;100.00;79362.56;5026985;28;20389;-69
2022/11/12 07:04:12;;;;;;;12.55;5.57;;;;;;;-142.75;100.00;79378.31;5053118;27;20135;-69
2022/11/12 07:06:38;;;;;;;8.95;5.95;;;;;;;-142.75;100.00;79368.47;5051540;27;20025;-69
2022/11/12 07:09:04;;;;;;;11.40;6.80;;;;;;;-142.75;100.00;79370.44;5047808;27;20432;-69
2022/11/12 07:11:29;;;;;;;;;;;;;;;-142.75;100.00;79370.44;5055088;27;20019;-69
2022/11/12 07:13:55;;;;;;;10.27;5.90;;;;;;;-142.75;100.00;79352.72;5052125;27;19973;-69
2022/11/12 07:16:21;;;;;;;10.23;6.30;;;;;;;-142.75;100.00;79356.66;5049024;27;20082;-69
2022/11/12 07:18:48;;;;;;;9.40;6.65;;;;;;;-142.75;100.00;79384.22;5032886;27;20069;-69
2022/11/12 07:21:19;;;;;;;10.40;6.63;;;;;;;-142.75;100.00;79358.63;5056088;27;20050;-69
2022/11/12 07:23:45;;;;;;;11.80;7.00;;;;;;;-142.75;100.00;79344.84;5059576;27;20023;-69
2022/11/12 07:26:17;;;;;;;10.70;6.27;;;;;;;-142.75;100.00;79350.75;5040865;27;20568;-69
2022/11/12 07:28:43;;;;;;;9.40;5.77;;;;;;;-142.75;100.00;79350.75;5046316;27;20559;-69
2022/11/12 07:31:11;;;;;;;7.87;5.57;;;;;;;-142.75;100.00;79358.63;5050672;27;20050;-69
2022/11/12 07:33:37;;;;;;;7.30;4.77;;;;;;;-142.75;100.00;79356.66;5053491;27;20099;-68
2022/11/12 07:36:11;;;;;;;8.25;4.65;;;;;;;-142.75;100.00;79362.56;5040051;27;20406;-69
2022/11/12 07:38:38;;;;;;;6.50;4.73;;;;;;;-142.75;100.00;79344.84;5059073;27;20058;-69
2022/11/12 07:41:04;;;;;;;5.83;4.23;;;;;;;-142.75;100.00;79346.81;5051915;27;20594;-69
2022/11/12 07:43:34;;;;;;;7.63;4.47;;;;;;;-142.75;100.00;79346.81;5053204;27;20103;-69
2022/11/12 07:46:21;;;;;;;5.70;4.13;;;;;;;-142.75;100.00;79331.03;5050661;27;20139;-69
2022/11/12 07:48:46;;;;;;;4.68;3.55;;;;;;;-142.75;100.00;79317.25;5052481;27;20552;-69
2022/11/12 07:51:26;;;;;;;4.90;3.75;;;;;;;-142.75;100.00;79285.75;5059101;27;20027;-69
2022/11/12 07:53:53;;;;;;;8.13;5.27;;;;;;;-142.75;100.00;79256.19;5047446;27;20035;-68
2022/11/12 07:56:21;;;;;;;10.07;6.20;;;;;;;-142.75;100.00;79230.59;5049247;27;20027;-68
2022/11/12 07:58:47;;;;;;;7.27;4.93;;;;;;;-142.75;100.00;79210.88;5054437;27;20104;-69
2022/11/12 08:01:31;;;;;;;6.40;4.10;;;;;;;-142.75;100.00;79203.00;5048020;27;20369;-70
2022/11/12 08:03:58;;;;;;;12.00;6.93;;;;;;;-142.75;100.00;79110.44;5048310;27;20024;-70
2022/11/12 08:06:24;;;;;;;13.53;8.07;;;;;;;-142.75;100.00;79055.28;5056460;27;20015;-68
2022/11/12 08:08:54;;;;;;;14.25;7.38;;;;;;;-142.75;100.00;79008.00;5047341;27;20024;-71
2022/11/12 08:11:19;;;;;;;16.00;8.37;;;;;;;-142.75;100.00;78964.69;5052155;27;20126;-65
2022/11/12 08:13:45;;;;;;;11.32;7.35;;;;;;;-142.75;100.00;78937.09;5055511;27;20342;-67
2022/11/12 08:16:11;;;;;;;12.85;7.63;;;;;;;-142.75;100.00;78917.41;5058735;27;20416;-66
2022/11/12 08:18:36;;;;;;;15.02;8.88;;;;;;;-142.75;100.00;78866.19;5045008;27;20422;-67
2022/11/12 08:21:04;;;;;;;11.50;6.38;;;;;;;-142.75;100.00;78824.84;5046450;28;20028;-72
2022/11/12 08:23:30;;;;;;;10.93;7.35;;;;;;;-142.75;100.00;78771.66;5047946;27;20024;-73
2022/11/12 08:26:00;;;;;;;12.85;6.80;;;;;;;-142.75;100.00;78750.00;5058123;27;20378;-69
2022/11/12 08:28:27;;;;;;;12.18;6.65;;;;;;;-142.75;100.00;78740.13;5047896;27;20050;-68
2022/11/12 08:30:53;;;;;;;10.68;6.28;;;;;;;-142.75;100.00;78730.28;5089561;27;20525;-67
2022/11/12 08:33:18;;;;;;;13.65;7.30;;;;;;;-142.75;100.00;78683.03;5101700;27;20016;-67
2022/11/12 08:35:43;;;;;;;11.40;7.30;;;;;;;-142.75;100.00;78629.84;5092660;27;20394;-67
2022/11/12 08:38:09;;;;;;;12.40;7.47;;;;;;;-142.75;100.00;78612.13;5085237;27;20456;-67
2022/11/12 08:40:35;;;;;;;10.70;7.00;;;;;;;-142.75;100.00;78558.94;5096062;27;20039;-67
2022/11/12 08:43:04;;;;;;;14.55;7.95;;;;;;;-142.75;100.00;78562.88;5058176;27;20024;-67
2022/11/12 08:45:32;;;;;;;13.98;7.65;;;;;;;-142.75;100.00;78531.38;5053845;27;20019;-67
2022/11/12 08:48:03;;;;;;;13.05;8.20;;;;;;;-142.75;100.00;78480.16;5066049;27;20570;-66
2022/11/12 08:50:29;;;;;;;14.07;8.07;;;;;;;-142.75;100.00;78427.00;5056760;27;20129;-67
2022/11/12 08:53:03;;;;;;;13.18;8.25;;;;;;;-142.75;100.00;78476.22;5030851;28;20341;-68
2022/11/12 08:55:30;;;;;;;18.70;8.88;;;;;;;-142.75;100.00;78415.19;5047773;27;20103;-70
2022/11/12 08:58:00;;;;;;;15.65;9.63;;;;;;;-142.75;100.00;78399.44;5057148;27;20070;-68
2022/11/12 09:00:30;;;;;;;14.45;8.73;;;;;;;-142.75;100.00;78369.88;5052031;27;20023;-67
2022/11/12 09:02:59;;;;;;;14.05;9.32;;;;;;;-142.75;100.00;78365.94;5057654;27;20639;-68
2022/11/12 09:05:24;;;;;;;14.57;9.32;;;;;;;-142.75;100.00;78336.41;5035193;28;20027;-68
2022/11/12 09:08:05;;;;;;;17.23;9.52;;;;;;;-142.75;100.00;78320.66;5056927;27;20467;-68
2022/11/12 09:10:31;;;;;;;15.43;9.50;;;;;;;-142.75;100.00;78287.16;5030560;27;20024;-69
2022/11/12 09:12:57;;;;;;;15.60;9.05;;;;;;;-142.75;100.00;78308.84;5039963;27;20559;-69
2022/11/12 09:15:24;;;;;;;15.15;9.48;;;;;;;-142.75;100.00;78243.84;5031063;28;20023;-72
2022/11/12 09:17:57;;;;;;;16.02;10.20;;;;;;;-142.75;100.00;78220.22;5056187;27;20023;-69
2022/11/12 09:20:23;;;;;;;15.75;9.73;;;;;;;-142.75;100.00;78200.53;5055832;27;20122;-67
2022/11/12 09:22:49;;;;;;;15.25;9.32;;;;;;;-142.75;100.00;78184.78;5061695;27;20320;-68
2022/11/12 09:25:14;;;;;;;;;;;;;;;-142.75;100.00;78127.66;5030861;28;20332;-68
2022/11/12 09:27:40;;;;;;;16.58;10.73;;;;;;;-142.75;100.00;78062.69;5045337;27;20329;-68
2022/11/12 09:30:06;;;;;;;17.65;9.18;;;;;;;-142.75;100.00;78044.94;5057796;27;20216;-67
2022/11/12 09:32:31;;;;;;;;;;;;;;;-142.75;100.00;78019.34;5049737;27;20421;-68
2022/11/12 09:34:57;;;;;;;15.85;9.00;;;;;;;-142.75;100.00;78058.72;5043500;28;20185;-67
2022/11/12 09:37:22;;;;;;;15.77;9.55;;;;;;;-142.75;100.00;78021.31;5056306;27;20344;-68
2022/11/12 09:39:50;;;;;;;;;;;;;;;-142.75;100.00;77997.69;5049266;27;20047;-68
2022/11/12 09:42:20;;;;;;;12.57;8.13;;;;;;;-142.75;100.00;77995.72;5055122;27;19911;-68
2022/11/12 09:44:59;;;;;;;19.90;9.30;;;;;;;-142.75;100.00;77991.78;5043302;27;20024;-68
2022/11/12 09:47:39;;;;;;;13.52;8.43;;;;;;;-142.75;100.00;77993.75;5046724;27;20154;-67
2022/11/12 09:50:23;;;;;;;14.20;7.97;;;;;;;-142.75;100.00;78015.41;5053464;27;20028;-68
2022/11/12 09:52:55;;;;;;;12.63;8.30;;;;;;;-142.75;100.00;77995.72;5026688;28;20108;-66
2022/11/12 09:55:35;;;;;;;11.88;7.85;;;;;;;-142.75;100.00;78011.47;5045830;27;20054;-66
2022/11/12 09:58:01;;;;;;;14.90;8.38;;;;;;;-142.75;100.00;78031.16;5045693;27;20023;-66
2022/11/12 10:00:28;;;;;;;11.32;7.50;;;;;;;-142.75;100.00;77997.69;5052970;27;20376;-67
2022/11/12 10:03:05;;;;;;;13.30;8.07;;;;;;;-142.75;100.00;77946.50;5056948;27;20080;-67
2022/11/12 10:05:49;;;;;;;12.02;7.38;;;;;;;-142.75;100.00;77952.41;5021058;28;20024;-67
2022/11/12 10:08:33;;;;;;;14.32;8.05;;;;;;;-142.75;100.00;77938.63;5055543;27;20578;-68
2022/11/12 10:11:22;;;;;;;12.95;7.63;;;;;;;-142.75;100.00;77970.13;5057611;27;20024;-67
2022/11/12 10:14:09;;;;;;;10.77;7.43;;;;;;;-142.75;100.00;77924.84;5047631;27;20030;-67
2022/11/12 10:16:59;;;;;;;12.20;7.82;;;;;;;-142.75;100.00;77857.88;5026797;28;20046;-66
2022/11/12 10:19:59;;;;;;;13.35;8.05;;;;;;;-142.75;100.00;77828.34;5048979;28;20031;-67
2022/11/12 10:23:00;;;;;;;11.90;7.30;;;;;;;-142.75;100.00;77806.69;5057491;27;20130;-67
2022/11/12 10:25:26;;;;;;;12.45;7.07;;;;;;;-142.75;100.00;77743.69;5047947;27;20028;-67
2022/11/12 10:27:54;;;;;;;13.68;7.78;;;;;;;-142.75;100.00;77720.03;5054832;27;20100;-66
2022/11/12 10:30:22;;;;;;;15.07;8.13;;;;;;;-142.75;100.00;77739.75;5054951;27;20055;-66
2022/11/12 10:32:49;;;;;;;13.48;8.15;;;;;;;-142.75;100.00;77720.03;5041406;28;20536;-66
2022/11/12 10:35:20;;;;;;;10.95;7.43;;;;;;;-142.75;100.00;77712.16;5043959;28;20104;-67
2022/11/12 10:38:11;;;;;;;12.60;7.70;;;;;;;-142.75;100.00;77731.88;5051754;28;20023;-67
2022/11/12 10:40:39;;;;;;;12.00;6.70;;;;;;;-142.75;100.00;77702.31;5025391;28;20055;-66
2022/11/12 10:43:18;;;;;;;10.75;7.00;;;;;;;-142.75;100.00;77641.28;5044512;28;20038;-67
2022/11/12 10:45:46;;;;;;;9.10;6.93;;;;;;;-142.75;100.00;77643.25;5043880;28;20058;-66
2022/11/12 10:48:26;;;;;;;9.18;6.03;;;;;;;-142.75;100.00;77625.53;5053187;28;20026;-67
2022/11/12 10:50:52;;;;;;;9.77;6.07;;;;;;;-142.75;100.00;77603.88;5046297;28;20023;-67
2022/11/12 10:53:31;;;;;;;12.90;6.57;;;;;;;-142.75;100.00;77592.06;5050003;28;20447;-68
2022/11/12 10:55:59;;;;;;;8.55;6.22;;;;;;;-142.75;100.00;77586.16;5047168;28;20051;-67
2022/11/12 10:58:24;;;;;;;9.00;5.88;;;;;;;-142.75;100.00;77623.56;5055467;28;20027;-68
2022/11/12 11:01:11;;;;;;;11.07;6.32;;;;;;;-142.75;100.00;77578.28;5019797;28;20518;-66
2022/11/12 11:03:48;;;;;;;8.27;5.20;;;;;;;-142.75;100.00;77582.22;5044666;28;20031;-66
2022/11/12 11:06:14;;;;;;;8.85;5.75;;;;;;;-142.75;100.00;77531.03;5052337;28;20096;-67
2022/11/12 11:08:43;;;;;;;8.32;5.53;;;;;;;-142.75;100.00;77546.78;5045486;28;20555;-66
2022/11/12 11:11:16;;;;;;;11.30;5.82;;;;;;;-142.75;100.00;77468.03;5017684;28;20031;-66
2022/11/12 11:13:43;;;;;;;8.20;5.53;;;;;;;-142.75;99.98;77428.63;5046321;28;20104;-67
2022/11/12 11:16:20;;;;;;;9.50;5.60;;;;;;;-142.75;97.19;77385.31;5051564;28;20035;-67
2022/11/12 11:18:58;;;;;;;8.70;5.68;;;;;;;-142.75;94.31;77393.19;5038523;28;20027;-66
2022/11/12 11:21:53;;;;;;;8.15;5.35;;;;;;;-142.75;88.91;77338.06;5055573;28;20582;-67
2022/11/12 11:24:31;;;;;;;9.50;4.47;;;;;;;-142.75;88.18;77432.56;5052219;28;20015;-67
2022/11/12 11:27:08;;;;;;;8.55;4.85;;;;;;;-142.75;89.66;77371.53;5053907;28;20566;-67
2022/11/12 11:29:40;;;;;;;8.63;5.03;;;;;;;-142.75;89.87;77357.75;5037897;28;20024;-68
2022/11/12 11:32:44;;;;;;;9.25;5.35;;;;;;;-142.75;89.29;77298.69;5031069;28;20563;-68
2022/11/12 11:35:46;;;;;;;8.75;5.10;;;;;;;-142.75;91.74;77349.88;5050300;27;20027;-67